Alexander City, AL (35010)

3:09 PM CDT on July 12, 2014 (GMT -0500)
Russell (KALX) Elev 686 ft | 32.91 °N, 85.96 °W | Change Station

Current weather conditions updated 14 minutes ago

Clear
Clear
91 °F
Feels Like 95 °F
N
5
Wind Variable Wind from East

Today is forecast to be nearly the same temperature as yesterday.

Today
High -- | Low -- °F
--% Chance of Precip.
Yesterday
High -- | Low -- °F
Precip. -- in
5:44 AM 7:54 PM
Full, 100% visible
Pressure 30.15 in
Visibility 10.0 miles
Clouds Clear
Heat Index 95 °F
Dew Point 68 °F
Humidity 48%
Rainfall 0.00 in
Snow Depth Not available.
UV 10 out of 12
Pollen 3.40 out of 12
Ozone Good
PM2.5 Moderate
Flu Activity Sporadic
METAR KALX 121955Z AUTO 09004KT 10SM CLR 33/20 A3015 RMK AO2 T03260203

More Conditions Fewer Conditions

Pressure 30.15 in
Visibility 10.0 miles
Clouds Clear
Heat Index 95 °F
Dew Point 68 °F
Humidity 48%
Rainfall 0.00 in
Snow Depth Not available.
UV 10 out of 12
Pollen 3.40 out of 12
Ozone Good
PM2.5 Moderate
Flu Activity Sporadic
METAR KALX 121955Z AUTO 09004KT 10SM CLR 33/20 A3015 RMK AO2 T03260203

More Conditions Fewer Conditions

10-Day Weather Forecast

Almanac

Astronomy

Jul. 12, 2014 Rise Set
Actual Time 5:44 AM CDT 7:54 PM CDT
Civil Twilight 5:16 AM CDT 8:22 PM CDT
Nautical Twilight 4:41 AM CDT 8:56 PM CDT
Astronomical Twilight 4:04 AM CDT 9:33 PM CDT
Moon 8:01 PM CDT 5:58 AM CDT
Length of Visible Light 15h 05m
Length of Day
14h 09m
Tomorrow will be 0m 56s shorter.
Full, 100% of the Moon is Illuminated
Today
Full
Jul 18
Last Quarter
Jul 26
New
Aug 3
First Quarter
Aug 10
Full

Today's Extremes

State Highs State Lows

Community

WunderPhotos

Upload Photos

1,732,941 photos uploaded!

WunderBlogs® & News

Nearby

Air Quality

  Air Quality AQ Index Pollutant
Yesterday Good
PM10
Yesterday Good
OZONE
Current Moderate
PM2.5
Current Good
OZONE
Saturday Moderate
OZONE
Saturday Moderate
PM2.5
Sunday Moderate
PM2.5
Sunday Good
OZONE
Monday Moderate
PM2.5
Monday Good
OZONE

Snow Depth

Station Depth Elevation
No new snow has been reported.

Earthquake Activity

City Distance Mag. Time & Date
No recent earthquake activity has been reported nearby.
Minimum magnitude displayed is 2.5.

Coastal Water Temperatures

Place Temperature
No Stations Reporting

Nearby Weather Stations

Station Location Temp. Heat Index Dew Point Humidity Wind Precip. Elev Updated Type
Lake Martin West of Pitchford Hollow, Alexander City, AL 86.2 °F 92 °F 72 °F 62% ENE  at  5.1 mph 0.00 in / hr 512 ft 3:09 PM CDT Rapid Fire
Riddle, Titus, AL 98.4 °F 110 °F 73 °F 45% East  at  3.1 mph 0.00 in / hr 500 ft 3:09 PM CDT Rapid Fire
Franklyn Farm, Tallassee, AL 90.6 °F 97 °F 71 °F 52% NNW  at  2.2 mph 0.00 in / hr 435 ft 3:09 PM CDT Rapid Fire

Show More Stations Show Fewer Stations